Station Historical Data
Daily Summary for September 13, 2017 Units:  Metric    English   Both
« Previous Day
Next Day »
Daily Weekly Monthly Yearly Custom
  High: Low: Average:
Temperature: 21.9 °C 15.2 °C 18.1 °C
Dew Point: 16.5 °C 14.1 °C 15.1 °C
Humidity: 94% 65% 84%
Wind Speed: 19.3km/h 3.2km/h 11.3km/h
Wind Gust: 38.6km/h - -
Wind- - SSE
Pressure: 1014.4 hPa 1010.7 hPa -
Precipitation: 0 mm    
Historical Graphs
 
 
Tabular Data for September 13, 2017
Time Temperature Dew Point Pressure Wind Wind Speed Wind Gust Humidity Rainfall Rate (Hourly) Conditions
00:00 15.5 °C 14.6 °C 1011.4 hPa East 8 km/h 8 km/h 94% 0 mm RA
00:10 15.5 °C 14.6 °C 1011.4 hPa East 8 km/h 8 km/h 94% 0 mm BKN
00:15 15.5 °C 14.6 °C 1011.4 hPa East 8 km/h 8 km/h 94% 0 mm BKN
00:20 15.5 °C 14.6 °C 1011.4 hPa East 8 km/h 8 km/h 94% 0 mm BKN
00:25 15.6 °C 14.6 °C 1011.4 hPa East 12.9 km/h 12.9 km/h 94% 0 mm BKN
00:30 15.6 °C 14.6 °C 1011.4 hPa East 12.9 km/h 12.9 km/h 94% 0 mm BKN
00:35 15.6 °C 14.6 °C 1011.4 hPa East 12.9 km/h 12.9 km/h 94% 0 mm BKN
00:40 15.6 °C 14.6 °C 1011.4 hPa East 12.9 km/h 12.9 km/h 94% 0 mm BKN
00:45 15.6 °C 14.6 °C 1011.4 hPa East 16.1 km/h 16.1 km/h 94% 0 mm OVC
00:50 15.6 °C 14.6 °C 1011.4 hPa East 16.1 km/h 16.1 km/h 94% 0 mm OVC
00:55 15.6 °C 14.6 °C 1011.4 hPa East 16.1 km/h 16.1 km/h 94% 0 mm OVC
01:00 15.6 °C 14.6 °C 1011.4 hPa East 16.1 km/h 16.1 km/h 94% 0 mm OVC
01:10 15.6 °C 14.6 °C 1011.1 hPa East 16.1 km/h 16.1 km/h 94% 0 mm OVC
01:15 15.5 °C 14.6 °C 1011.1 hPa East 11.3 km/h 16.1 km/h 94% 0 mm OVC
01:20 15.5 °C 14.6 °C 1011.1 hPa East 11.3 km/h 11.3 km/h 94% 0 mm OVC
01:25 15.5 °C 14.5 °C 1011.1 hPa East 11.3 km/h 11.3 km/h 94% 0 mm OVC
01:30 15.4 °C 14.5 °C 1011.1 hPa East 11.3 km/h 11.3 km/h 94% 0 mm OVC
01:40 15.4 °C 14.5 °C 1011.1 hPa East 11.3 km/h 11.3 km/h 94% 0 mm OVC
01:45 15.4 °C 14.5 °C 1011.1 hPa East 11.3 km/h 11.3 km/h 94% 0 mm OVC
01:50 15.4 °C 14.4 °C 1011.1 hPa East 11.3 km/h 11.3 km/h 94% 0 mm OVC
01:55 15.4 °C 14.4 °C 1011.1 hPa East 11.3 km/h 11.3 km/h 94% 0 mm OVC
02:00 15.4 °C 14.4 °C 1011.1 hPa East 11.3 km/h 11.3 km/h 94% 0 mm OVC
02:05 15.3 °C 14.4 °C 1011.1 hPa East 11.3 km/h 11.3 km/h 94% 0 mm OVC
02:10 15.3 °C 14.4 °C 1011.1 hPa East 11.3 km/h 11.3 km/h 94% 0 mm OVC
02:15 15.3 °C 14.3 °C 1011.1 hPa East 11.3 km/h 11.3 km/h 94% 0 mm OVC
02:20 15.3 °C 14.3 °C 1011.1 hPa East 11.3 km/h 11.3 km/h 94% 0 mm OVC
02:25 15.3 °C 14.3 °C 1011.1 hPa East 11.3 km/h 11.3 km/h 94% 0 mm OVC
02:30 15.3 °C 14.3 °C 1011.1 hPa East 11.3 km/h 11.3 km/h 94% 0 mm OVC
02:40 15.2 °C 14.3 °C 1011.1 hPa East 11.3 km/h 11.3 km/h 94% 0 mm OVC
02:45 15.2 °C 14.3 °C 1011.1 hPa East 11.3 km/h 11.3 km/h 94% 0 mm OVC
02:50 15.2 °C 14.3 °C 1011.1 hPa East 11.3 km/h 11.3 km/h 94% 0 mm OVC
02:55 15.2 °C 14.3 °C 1011.1 hPa East 11.3 km/h 11.3 km/h 94% 0 mm OVC
03:00 15.3 °C 14.3 °C 1011.1 hPa East 11.3 km/h 11.3 km/h 94% 0 mm OVC
03:05 15.3 °C 14.3 °C 1011.1 hPa East 11.3 km/h 11.3 km/h 94% 0 mm OVC
03:10 15.3 °C 14.3 °C 1011.1 hPa East 11.3 km/h 11.3 km/h 94% 0 mm OVC
03:15 15.3 °C 14.3 °C 1011.1 hPa ESE 12.9 km/h 12.9 km/h 94% 0 mm FEW
03:20 15.3 °C 14.4 °C 1011.1 hPa ESE 12.9 km/h 12.9 km/h 94% 0 mm FEW
03:35 15.4 °C 14.4 °C 1011.1 hPa ESE 12.9 km/h 12.9 km/h 94% 0 mm BKN
03:40 15.4 °C 14.5 °C 1011.1 hPa ESE 12.9 km/h 12.9 km/h 94% 0 mm BKN
03:45 15.4 °C 14.5 °C 1011.1 hPa ESE 12.9 km/h 12.9 km/h 94% 0 mm BKN
03:50 15.5 °C 14.5 °C 1010.7 hPa ESE 12.9 km/h 12.9 km/h 94% 0 mm BKN
03:55 15.5 °C 14.6 °C 1010.7 hPa ESE 9.7 km/h 12.9 km/h 94% 0 mm OVC
04:00 15.5 °C 14.6 °C 1010.7 hPa ESE 9.7 km/h 9.7 km/h 94% 0 mm OVC
04:05 15.6 °C 14.6 °C 1010.7 hPa ESE 9.7 km/h 9.7 km/h 94% 0 mm OVC
04:10 15.6 °C 14.6 °C 1010.7 hPa ESE 9.7 km/h 9.7 km/h 94% 0 mm OVC
04:15 15.6 °C 14.6 °C 1011.1 hPa ESE 12.9 km/h 12.9 km/h 94% 0 mm OVC
04:20 15.6 °C 14.6 °C 1011.1 hPa ESE 12.9 km/h 12.9 km/h 94% 0 mm OVC
04:25 15.6 °C 14.6 °C 1011.1 hPa ESE 12.9 km/h 12.9 km/h 94% 0 mm OVC
04:30 15.6 °C 14.6 °C 1011.1 hPa ESE 12.9 km/h 12.9 km/h 94% 0 mm OVC
04:35 15.6 °C 14.7 °C 1011.1 hPa ESE 12.9 km/h 12.9 km/h 94% 0 mm OVC
04:40 15.6 °C 14.6 °C 1011.1 hPa ESE 12.9 km/h 12.9 km/h 94% 0 mm OVC
04:45 15.6 °C 14.6 °C 1011.1 hPa ESE 11.3 km/h 12.9 km/h 94% 0 mm SCT
04:50 15.6 °C 14.6 °C 1011.1 hPa SE 11.3 km/h 11.3 km/h 94% 0 mm SCT
04:55 15.6 °C 14.6 °C 1011.4 hPa SE 12.9 km/h 12.9 km/h 94% 0 mm BKN
05:00 15.6 °C 14.7 °C 1011.4 hPa ESE 12.9 km/h 12.9 km/h 94% 0 mm BKN
05:10 15.6 °C 14.6 °C 1011.4 hPa ESE 12.9 km/h 12.9 km/h 94% 0 mm BKN
05:15 15.6 °C 14.6 °C 1011.4 hPa SE 11.3 km/h 12.9 km/h 94% 0 mm BKN
05:20 15.6 °C 14.7 °C 1011.7 hPa SE 11.3 km/h 11.3 km/h 94% 0 mm BKN
05:25 15.6 °C 14.7 °C 1011.7 hPa SE 11.3 km/h 11.3 km/h 94% 0 mm SCT
05:30 15.6 °C 14.7 °C 1011.7 hPa SE 11.3 km/h 11.3 km/h 94% 0 mm SCT
05:40 15.6 °C 14.7 °C 1011.7 hPa SE 11.3 km/h 11.3 km/h 94% 0 mm SCT
05:45 15.6 °C 14.7 °C 1011.7 hPa SE 11.3 km/h 11.3 km/h 94% 0 mm SCT
05:50 15.6 °C 14.7 °C 1011.7 hPa SE 11.3 km/h 11.3 km/h 94% 0 mm SCT
05:55 15.6 °C 14.7 °C 1012.1 hPa SE 11.3 km/h 11.3 km/h 94% 0 mm SCT
06:00 15.6 °C 14.7 °C 1012.1 hPa SE 11.3 km/h 11.3 km/h 94% 0 mm SCT
06:05 15.6 °C 14.7 °C 1012.1 hPa SE 11.3 km/h 11.3 km/h 94% 0 mm SCT
06:10 15.6 °C 14.7 °C 1012.1 hPa SE 11.3 km/h 11.3 km/h 94% 0 mm SCT
06:15 15.6 °C 14.7 °C 1012.1 hPa SE 8 km/h 11.3 km/h 94% 0 mm SCT
06:20 15.6 °C 14.7 °C 1012.1 hPa SSE 8 km/h 8 km/h 94% 0 mm SCT
06:25 15.6 °C 14.7 °C 1012.4 hPa SSE 8 km/h 8 km/h 94% 0 mm SCT
06:30 15.6 °C 14.7 °C 1012.4 hPa SSE 8 km/h 8 km/h 94% 0 mm SCT
06:35 15.6 °C 14.7 °C 1012.4 hPa SSE 8 km/h 8 km/h 94% 0 mm SCT
06:40 15.6 °C 14.7 °C 1012.4 hPa SSE 8 km/h 8 km/h 94% 0 mm SCT
06:45 15.6 °C 14.7 °C 1012.4 hPa SSE 8 km/h 8 km/h 94% 0 mm SCT
06:50 15.6 °C 14.7 °C 1012.4 hPa SSE 8 km/h 8 km/h 94% 0 mm SCT
06:55 15.6 °C 14.7 °C 1012.4 hPa SSE 8 km/h 8 km/h 94% 0 mm SCT
07:00 15.6 °C 14.7 °C 1012.4 hPa SSE 8 km/h 8 km/h 94% 0 mm SCT
07:05 15.6 °C 14.7 °C 1012.8 hPa SSE 8 km/h 8 km/h 94% 0 mm SCT
07:10 15.6 °C 14.7 °C 1012.8 hPa SSE 8 km/h 8 km/h 94% 0 mm SCT
07:15 15.6 °C 14.7 °C 1013.1 hPa SSE 11.3 km/h 11.3 km/h 94% 0 mm OVC
07:20 15.7 °C 14.7 °C 1013.1 hPa South 11.3 km/h 11.3 km/h 94% 0 mm OVC
07:25 15.6 °C 14.7 °C 1013.1 hPa South 11.3 km/h 11.3 km/h 94% 0 mm OVC
07:30 15.6 °C 14.7 °C 1013.1 hPa South 11.3 km/h 11.3 km/h 94% 0 mm OVC
07:40 15.6 °C 14.7 °C 1013.4 hPa South 11.3 km/h 11.3 km/h 94% 0 mm OVC
07:45 15.6 °C 14.7 °C 1013.1 hPa SSE 9.7 km/h 11.3 km/h 94% 0 mm OVC
07:50 15.7 °C 14.7 °C 1013.1 hPa SSE 9.7 km/h 9.7 km/h 94% 0 mm OVC
07:55 15.7 °C 14.7 °C 1013.1 hPa SSE 9.7 km/h 9.7 km/h 94% 0 mm OVC
08:00 15.7 °C 14.8 °C 1013.1 hPa SSE 9.7 km/h 9.7 km/h 94% 0 mm OVC
08:05 15.7 °C 14.8 °C 1013.1 hPa SSE 9.7 km/h 9.7 km/h 94% 0 mm OVC
08:10 15.7 °C 14.8 °C 1013.4 hPa SSE 9.7 km/h 9.7 km/h 94% 0 mm OVC
08:15 15.8 °C 14.8 °C 1013.4 hPa SE 12.9 km/h 12.9 km/h 94% 0 mm BKN
08:20 15.8 °C 14.8 °C 1013.4 hPa SE 12.9 km/h 12.9 km/h 94% 0 mm BKN
08:25 15.8 °C 14.9 °C 1013.4 hPa SE 12.9 km/h 12.9 km/h 94% 0 mm BKN
08:30 15.8 °C 14.9 °C 1013.4 hPa SE 12.9 km/h 12.9 km/h 94% 0 mm BKN
08:35 15.9 °C 14.9 °C 1013.4 hPa SE 12.9 km/h 12.9 km/h 94% 0 mm BKN
08:40 15.9 °C 14.9 °C 1013.4 hPa SE 12.9 km/h 12.9 km/h 94% 0 mm BKN
08:45 15.9 °C 14.9 °C 1013.4 hPa SE 16.1 km/h 16.1 km/h 94% 0 mm BKN
08:50 15.9 °C 15 °C 1013.4 hPa SE 16.1 km/h 16.1 km/h 94% 0 mm BKN
08:55 16.1 °C 15.1 °C 1013.8 hPa SE 16.1 km/h 16.1 km/h 94% 0 mm BKN
09:00 16.1 °C 15 °C 1013.8 hPa SE 16.1 km/h 16.1 km/h 93% 0 mm BKN
09:05 16.2 °C 15.1 °C 1013.4 hPa SE 16.1 km/h 16.1 km/h 93% 0 mm BKN
09:10 16.2 °C 15.1 °C 1013.8 hPa SE 16.1 km/h 16.1 km/h 93% 0 mm BKN
09:15 16.3 °C 15.2 °C 1013.8 hPa SE 11.3 km/h 16.1 km/h 93% 0 mm SCT
09:20 16.3 °C 15.2 °C 1013.4 hPa SSE 11.3 km/h 11.3 km/h 93% 0 mm SCT
09:25 16.5 °C 15.2 °C 1013.8 hPa SE 14.5 km/h 14.5 km/h 92% 0 mm BKN
09:30 16.6 °C 15.3 °C 1013.8 hPa SE 14.5 km/h 14.5 km/h 92% 0 mm BKN
09:35 16.8 °C 15.4 °C 1013.8 hPa SE 14.5 km/h 14.5 km/h 92% 0 mm BKN
09:40 16.9 °C 15.4 °C 1013.8 hPa SE 14.5 km/h 14.5 km/h 91% 0 mm BKN
09:45 17 °C 15.5 °C 1013.8 hPa SE 14.5 km/h 14.5 km/h 91% 0 mm BKN
09:50 17.2 °C 15.6 °C 1013.8 hPa SE 14.5 km/h 14.5 km/h 90% 0 mm BKN
09:55 17.3 °C 15.5 °C 1014.1 hPa SE 14.5 km/h 14.5 km/h 89% 0 mm BKN
10:00 17.6 °C 15.7 °C 1014.1 hPa SE 14.5 km/h 14.5 km/h 89% 0 mm BKN
10:10 17.8 °C 15.7 °C 1014.1 hPa SE 14.5 km/h 14.5 km/h 87% 0 mm BKN
10:15 17.8 °C 15.4 °C 1014.1 hPa SSE 11.3 km/h 14.5 km/h 86% 0 mm BKN
10:20 17.9 °C 15.8 °C 1014.1 hPa SSE 11.3 km/h 11.3 km/h 87% 0 mm BKN
10:25 18.2 °C 15.8 °C 1014.1 hPa SSE 11.3 km/h 11.3 km/h 86% 0 mm BKN
10:30 18.4 °C 16 °C 1014.1 hPa SSE 11.3 km/h 11.3 km/h 86% 0 mm BKN
10:40 18.9 °C 15.8 °C 1014.1 hPa SSE 11.3 km/h 11.3 km/h 82% 0 mm BKN
10:45 19.2 °C 16.3 °C 1014.4 hPa SSE 11.3 km/h 11.3 km/h 83% 0 mm BKN
10:50 19.6 °C 15.8 °C 1014.4 hPa SSE 11.3 km/h 11.3 km/h 79% 0 mm BKN
10:55 19.8 °C 15.7 °C 1014.1 hPa SSE 11.3 km/h 11.3 km/h 77% 0 mm BKN
11:00 20.1 °C 15.9 °C 1014.1 hPa SSE 11.3 km/h 11.3 km/h 77% 0 mm BKN
11:05 20.4 °C 15.4 °C 1014.1 hPa SSE 11.3 km/h 11.3 km/h 73% 0 mm BKN
11:10 20.7 °C 16.1 °C 1014.1 hPa SSE 11.3 km/h 11.3 km/h 75% 0 mm BKN
11:15 20.9 °C 15.4 °C 1014.1 hPa SSW 14.5 km/h 14.5 km/h 71% 0 mm BKN
11:20 20.9 °C 15.7 °C 1014.1 hPa SW 14.5 km/h 14.5 km/h 72% 0 mm BKN
11:25 20.9 °C 15.7 °C 1014.1 hPa SW 14.5 km/h 14.5 km/h 72% 0 mm BKN
11:30 20.9 °C 15.7 °C 1014.1 hPa SW 14.5 km/h 14.5 km/h 72% 0 mm BKN
11:40 21.1 °C 15.9 °C 1014.1 hPa SW 14.5 km/h 14.5 km/h 72% 0 mm BKN
11:45 21.2 °C 15.7 °C 1014.1 hPa SW 14.5 km/h 14.5 km/h 71% 0 mm BKN
11:50 21.3 °C 16 °C 1014.1 hPa SW 14.5 km/h 14.5 km/h 72% 0 mm BKN
11:55 21.2 °C 15.3 °C 1014.1 hPa SW 14.5 km/h 14.5 km/h 69% 0 mm BKN
12:00 21.2 °C 15.1 °C 1014.1 hPa SW 14.5 km/h 14.5 km/h 68% 0 mm BKN
12:05 21.2 °C 15 °C 1014.1 hPa SW 14.5 km/h 14.5 km/h 68% 0 mm BKN
12:10 21 °C 15.8 °C 1014.1 hPa SW 14.5 km/h 14.5 km/h 72% 0 mm BKN
12:15 21.1 °C 15.4 °C 1014.1 hPa SSW 14.5 km/h 38.6 km/h 70% 0 mm BKN
12:20 21.2 °C 15.6 °C 1014.1 hPa South 14.5 km/h 38.6 km/h 70% 0 mm BKN
12:25 21.3 °C 15.1 °C 1014.1 hPa South 14.5 km/h 38.6 km/h 68% 0 mm BKN
12:30 21.1 °C 15.2 °C 1014.1 hPa South 14.5 km/h 38.6 km/h 69% 0 mm BKN
12:40 20.7 °C 15.2 °C 1014.1 hPa South 14.5 km/h 38.6 km/h 71% 0 mm BKN
12:45 20.5 °C 15.1 °C 1014.1 hPa South 14.5 km/h 38.6 km/h 71% 0 mm BKN
12:50 20.3 °C 15.1 °C 1013.8 hPa South 14.5 km/h 38.6 km/h 72% 0 mm BKN
12:55 20.1 °C 14.9 °C 1013.8 hPa South 14.5 km/h 38.6 km/h 72% 0 mm BKN
13:00 20.1 °C 15.1 °C 1013.8 hPa South 14.5 km/h 38.6 km/h 73% 0 mm BKN
13:05 20.2 °C 15.4 °C 1013.8 hPa South 14.5 km/h 38.6 km/h 74% 0 mm BKN
13:10 20.2 °C 14.5 °C 1013.8 hPa South 14.5 km/h 38.6 km/h 70% 0 mm BKN
13:15 20.3 °C 15.1 °C 1013.8 hPa SSW 19.3 km/h 38.6 km/h 72% 0 mm BKN
13:20 20.4 °C 14.6 °C 1013.8 hPa SSW 19.3 km/h 19.3 km/h 69% 0 mm BKN
13:25 20.6 °C 15.3 °C 1013.8 hPa SSW 19.3 km/h 19.3 km/h 72% 0 mm BKN
13:30 20.6 °C 14.7 °C 1013.8 hPa SSW 19.3 km/h 19.3 km/h 69% 0 mm BKN
13:35 20.6 °C 15.1 °C 1013.8 hPa SSW 19.3 km/h 19.3 km/h 71% 0 mm BKN
13:40 20.4 °C 14.6 °C 1013.8 hPa SSW 19.3 km/h 19.3 km/h 69% 0 mm BKN
13:45 20.3 °C 14.7 °C 1013.8 hPa SSW 19.3 km/h 19.3 km/h 70% 0 mm BKN
13:50 20.3 °C 14.4 °C 1013.8 hPa SSW 19.3 km/h 19.3 km/h 69% 0 mm BKN
13:55 20.4 °C 15.2 °C 1013.8 hPa SSW 19.3 km/h 19.3 km/h 72% 0 mm BKN
14:00 20.4 °C 14.8 °C 1013.8 hPa SSW 19.3 km/h 19.3 km/h 70% 0 mm BKN
14:05 20.6 °C 15.4 °C 1013.8 hPa SSW 19.3 km/h 19.3 km/h 72% 0 mm BKN
14:10 20.9 °C 14.8 °C 1013.8 hPa SSW 19.3 km/h 19.3 km/h 68% 0 mm BKN
14:15 21.4 °C 15.2 °C 1013.4 hPa SSW 19.3 km/h 33.8 km/h 68% 0 mm BKN
14:20 21.4 °C 14.8 °C 1013.4 hPa SSW 19.3 km/h 33.8 km/h 66% 0 mm BKN
14:25 21.3 °C 14.7 °C 1013.4 hPa SSW 19.3 km/h 33.8 km/h 66% 0 mm BKN
14:30 21.2 °C 14.8 °C 1013.4 hPa SSW 19.3 km/h 33.8 km/h 67% 0 mm BKN
14:35 21 °C 14.7 °C 1013.4 hPa SSW 19.3 km/h 33.8 km/h 67% 0 mm BKN
14:40 20.9 °C 14.1 °C 1013.4 hPa SSW 19.3 km/h 33.8 km/h 65% 0 mm BKN
14:45 20.8 °C 14.7 °C 1013.4 hPa SSW 19.3 km/h 33.8 km/h 68% 0 mm BKN
14:50 20.8 °C 14.9 °C 1013.4 hPa SSW 19.3 km/h 33.8 km/h 69% 0 mm BKN
14:55 20.8 °C 15.2 °C 1013.4 hPa SSW 19.3 km/h 33.8 km/h 70% 0 mm BKN
15:00 20.8 °C 14.7 °C 1013.4 hPa SSW 19.3 km/h 33.8 km/h 68% 0 mm BKN
15:10 20.8 °C 15.4 °C 1013.4 hPa SSW 19.3 km/h 33.8 km/h 71% 0 mm BKN
15:15 20.8 °C 14.9 °C 1013.4 hPa SW 14.5 km/h 33.8 km/h 69% 0 mm BKN
15:20 20.8 °C 14.4 °C 1013.4 hPa WSW 14.5 km/h 14.5 km/h 67% 0 mm BKN
15:25 20.8 °C 14.7 °C 1013.4 hPa WSW 14.5 km/h 14.5 km/h 68% 0 mm BKN
15:30 20.9 °C 15.2 °C 1013.4 hPa WSW 14.5 km/h 14.5 km/h 70% 0 mm BKN
15:35 20.9 °C 15.1 °C 1013.1 hPa WSW 14.5 km/h 14.5 km/h 69% 0 mm BKN
15:40 21.1 °C 15.2 °C 1013.1 hPa WSW 14.5 km/h 14.5 km/h 69% 0 mm BKN
15:45 21.2 °C 15.1 °C 1013.1 hPa WSW 14.5 km/h 14.5 km/h 68% 0 mm BKN
15:50 21.3 °C 15.4 °C 1013.1 hPa WSW 14.5 km/h 14.5 km/h 69% 0 mm BKN
15:55 21.3 °C 15.2 °C 1013.1 hPa WSW 14.5 km/h 14.5 km/h 68% 0 mm BKN
16:00 21.4 °C 15.9 °C 1013.1 hPa WSW 14.5 km/h 14.5 km/h 71% 0 mm BKN
16:05 21.3 °C 15.8 °C 1013.1 hPa WSW 14.5 km/h 14.5 km/h 71% 0 mm BKN
16:10 21.4 °C 15 °C 1013.1 hPa WSW 14.5 km/h 14.5 km/h 67% 0 mm BKN
16:15 21.5 °C 15.6 °C 1013.1 hPa SW 14.5 km/h 14.5 km/h 69% 0 mm BKN
16:20 21.6 °C 15.7 °C 1013.1 hPa SW 14.5 km/h 14.5 km/h 69% 0 mm BKN
16:25 21.8 °C 15.4 °C 1012.8 hPa SW 14.5 km/h 14.5 km/h 67% 0 mm BKN
16:30 21.8 °C 16.1 °C 1013.1 hPa SW 14.5 km/h 14.5 km/h 70% 0 mm BKN
16:35 21.9 °C 15.2 °C 1013.1 hPa SW 14.5 km/h 14.5 km/h 66% 0 mm BKN
16:40 21.8 °C 15.7 °C 1013.1 hPa SW 14.5 km/h 14.5 km/h 68% 0 mm BKN
16:45 21.8 °C 14.9 °C 1013.1 hPa SW 14.5 km/h 14.5 km/h 65% 0 mm BKN
16:50 21.7 °C 15.3 °C 1013.1 hPa SW 14.5 km/h 14.5 km/h 67% 0 mm BKN
16:55 21.7 °C 15.5 °C 1013.1 hPa SW 14.5 km/h 14.5 km/h 68% 0 mm BKN
17:00 21.6 °C 15.4 °C 1013.1 hPa SW 14.5 km/h 14.5 km/h 68% 0 mm BKN
17:10 21.4 °C 15.4 °C 1013.1 hPa SW 14.5 km/h 14.5 km/h 69% 0 mm BKN
17:15 21.3 °C 14.9 °C 1012.8 hPa SW 11.3 km/h 14.5 km/h 67% 0 mm BKN
17:20 21.2 °C 15.8 °C 1012.8 hPa SW 11.3 km/h 11.3 km/h 71% 0 mm BKN
17:25 21.1 °C 15.4 °C 1013.1 hPa SW 11.3 km/h 11.3 km/h 70% 0 mm BKN
17:30 21 °C 15.3 °C 1012.8 hPa SW 11.3 km/h 11.3 km/h 70% 0 mm BKN
17:40 20.9 °C 15.7 °C 1012.8 hPa SW 11.3 km/h 11.3 km/h 72% 0 mm BKN
17:45 20.7 °C 15.9 °C 1012.8 hPa SW 11.3 km/h 11.3 km/h 74% 0 mm BKN
17:50 20.6 °C 15.6 °C 1013.1 hPa SW 11.3 km/h 11.3 km/h 73% 0 mm BKN
18:00 20.5 °C 15.7 °C 1013.1 hPa SW 11.3 km/h 11.3 km/h 74% 0 mm BKN
18:05 20.4 °C 15.9 °C 1013.1 hPa SW 11.3 km/h 11.3 km/h 75% 0 mm BKN
18:10 20.4 °C 16 °C 1013.1 hPa SW 11.3 km/h 11.3 km/h 76% 0 mm BKN
18:15 20.3 °C 16.2 °C 1013.1 hPa SW 9.7 km/h 11.3 km/h 77% 0 mm OVC
18:20 20.2 °C 16.1 °C 1013.1 hPa SSW 9.7 km/h 9.7 km/h 77% 0 mm OVC
18:25 20.2 °C 16.4 °C 1013.1 hPa SSW 11.3 km/h 11.3 km/h 79% 0 mm -RA
18:30 20.2 °C 16.4 °C 1013.1 hPa SSW 11.3 km/h 11.3 km/h 79% 0 mm -RA
18:40 20.1 °C 16.5 °C 1013.1 hPa SSW 11.3 km/h 11.3 km/h 80% 0 mm -RA
18:45 20 °C 16.2 °C 1013.1 hPa SSW 9.7 km/h 11.3 km/h 79% 0 mm FEW
18:50 20 °C 16.4 °C 1013.1 hPa SSW 9.7 km/h 9.7 km/h 80% 0 mm FEW
18:55 20 °C 16.2 °C 1013.1 hPa SSW 9.7 km/h 9.7 km/h 79% 0 mm FEW
19:00 19.9 °C 16.4 °C 1013.1 hPa SSW 9.7 km/h 9.7 km/h 80% 0 mm FEW
19:05 19.9 °C 16.2 °C 1013.1 hPa SSW 9.7 km/h 9.7 km/h 79% 0 mm FEW
19:10 19.8 °C 16.1 °C 1013.1 hPa SSW 9.7 km/h 9.7 km/h 79% 0 mm FEW
19:15 19.7 °C 15.9 °C 1013.1 hPa SSW 4.8 km/h 9.7 km/h 79% 0 mm BKN
19:20 19.6 °C 15.8 °C 1013.1 hPa SSW 4.8 km/h 4.8 km/h 79% 0 mm BKN
19:25 19.4 °C 15.9 °C 1013.1 hPa SSW 4.8 km/h 4.8 km/h 80% 0 mm BKN
19:30 19.3 °C 15.8 °C 1013.1 hPa SSW 4.8 km/h 4.8 km/h 80% 0 mm BKN
19:35 19.1 °C 15.6 °C 1013.1 hPa SSW 4.8 km/h 4.8 km/h 80% 0 mm BKN
19:40 19 °C 15.7 °C 1013.1 hPa SSW 4.8 km/h 4.8 km/h 81% 0 mm BKN
19:45 18.8 °C 15.5 °C 1013.1 hPa SSW 4.8 km/h 4.8 km/h 81% 0 mm BKN
19:50 18.7 °C 15.3 °C 1013.1 hPa SSW 4.8 km/h 4.8 km/h 81% 0 mm BKN
19:55 18.6 °C 15.3 °C 1013.1 hPa SSW 4.8 km/h 4.8 km/h 81% 0 mm BKN
20:00 18.6 °C 15.6 °C 1013.1 hPa SSW 4.8 km/h 4.8 km/h 83% 0 mm BKN
20:05 18.4 °C 15.5 °C 1013.1 hPa SSW 4.8 km/h 4.8 km/h 83% 0 mm BKN
20:10 18.3 °C 15.4 °C 1013.4 hPa SSW 4.8 km/h 4.8 km/h 83% 0 mm BKN
20:15 18.2 °C 15.3 °C 1013.4 hPa South 3.2 km/h 4.8 km/h 83% 0 mm OVC
20:20 18.2 °C 15.4 °C 1013.4 hPa South 3.2 km/h 3.2 km/h 84% 0 mm OVC
20:25 18.1 °C 15.4 °C 1013.4 hPa South 3.2 km/h 3.2 km/h 84% 0 mm OVC
20:30 18.1 °C 15.3 °C 1013.4 hPa South 3.2 km/h 3.2 km/h 84% 0 mm OVC
20:40 17.9 °C 15.4 °C 1013.4 hPa South 3.2 km/h 3.2 km/h 85% 0 mm OVC
20:45 17.8 °C 15.1 °C 1013.4 hPa South 3.2 km/h 3.2 km/h 84% 0 mm OVC
20:50 17.8 °C 15.1 °C 1013.4 hPa South 3.2 km/h 3.2 km/h 84% 0 mm OVC
20:55 17.8 °C 15.1 °C 1013.4 hPa South 3.2 km/h 3.2 km/h 84% 0 mm OVC
21:00 17.8 °C 15.3 °C 1013.8 hPa South 3.2 km/h 3.2 km/h 85% 0 mm OVC
21:10 17.8 °C 15.4 °C 1013.8 hPa South 3.2 km/h 3.2 km/h 86% 0 mm OVC
21:15 17.8 °C 15.4 °C 1013.8 hPa South 3.2 km/h 3.2 km/h 86% 0 mm OVC
21:20 17.8 °C 15.4 °C 1013.8 hPa South 3.2 km/h 3.2 km/h 86% 0 mm OVC
21:25 17.7 °C 15.3 °C 1013.8 hPa South 3.2 km/h 3.2 km/h 86% 0 mm OVC
21:30 17.7 °C 15.3 °C 1013.8 hPa South 3.2 km/h 3.2 km/h 86% 0 mm OVC
21:40 17.7 °C 15.6 °C 1013.8 hPa South 3.2 km/h 3.2 km/h 87% 0 mm OVC
21:45 17.7 °C 15.5 °C 1013.8 hPa South 3.2 km/h 3.2 km/h 87% 0 mm OVC
21:50 17.7 °C 15.5 °C 1013.8 hPa South 3.2 km/h 3.2 km/h 87% 0 mm OVC
21:55 17.7 °C 15.5 °C 1013.8 hPa South 3.2 km/h 3.2 km/h 87% 0 mm OVC
22:00 17.6 °C 15.4 °C 1013.8 hPa South 3.2 km/h 3.2 km/h 87% 0 mm OVC
22:05 17.6 °C 15.6 °C 1013.8 hPa South 3.2 km/h 3.2 km/h 88% 0 mm OVC
22:10 17.6 °C 15.6 °C 1013.8 hPa South 3.2 km/h 3.2 km/h 88% 0 mm OVC
22:15 17.6 °C 15.4 °C 1013.8 hPa South 3.2 km/h 3.2 km/h 87% 0 mm OVC
22:20 17.6 °C 15.4 °C 1013.8 hPa South 3.2 km/h 3.2 km/h 87% 0 mm OVC
22:25 17.6 °C 15.4 °C 1013.8 hPa South 3.2 km/h 3.2 km/h 87% 0 mm OVC
22:30 17.6 °C 15.6 °C 1013.8 hPa South 3.2 km/h 3.2 km/h 88% 0 mm OVC
22:35 17.6 °C 15.6 °C 1013.8 hPa South 3.2 km/h 3.2 km/h 88% 0 mm OVC
22:40 17.6 °C 15.6 °C 1013.8 hPa South 3.2 km/h 3.2 km/h 88% 0 mm OVC
22:45 17.6 °C 15.4 °C 1013.8 hPa South 3.2 km/h 3.2 km/h 87% 0 mm OVC
22:50 17.6 °C 15.4 °C 1013.8 hPa South 3.2 km/h 3.2 km/h 87% 0 mm OVC
22:55 17.6 °C 15.3 °C 1013.8 hPa South 3.2 km/h 3.2 km/h 87% 0 mm OVC
23:00 17.6 °C 15.4 °C 1013.8 hPa South 3.2 km/h 3.2 km/h 87% 0 mm OVC
23:05 17.6 °C 15.6 °C 1013.8 hPa South 3.2 km/h 3.2 km/h 88% 0 mm OVC
23:10 17.6 °C 15.6 °C 1013.8 hPa South 3.2 km/h 3.2 km/h 88% 0 mm OVC
23:25 17.6 °C 15.6 °C 1014.1 hPa South 3.2 km/h 3.2 km/h 88% 0 mm OVC
23:35 17.6 °C 15.4 °C 1014.1 hPa South 3.2 km/h 3.2 km/h 87% 0 mm OVC
23:40 17.7 °C 15.5 °C 1014.1 hPa South 3.2 km/h 3.2 km/h 87% 0 mm OVC
23:45 17.7 °C 15.7 °C 1014.1 hPa South 3.2 km/h 3.2 km/h 88% 0 mm OVC
23:50 17.7 °C 15.7 °C 1014.1 hPa South 3.2 km/h 3.2 km/h 88% 0 mm OVC
23:55 17.6 °C 15.6 °C 1014.1 hPa South 3.2 km/h 3.2 km/h 88% 0 mm OVC
Piedmont Bend
Compliments of Weather Underground - 4 mb